createdAt,value
2022-11-07T00:00:56.111Z,0.00
2022-11-07T00:01:57.088Z,0.00
2022-11-07T00:02:58.011Z,0.00
2022-11-07T00:03:58.839Z,0.00
2022-11-07T00:04:59.722Z,0.00
2022-11-07T00:06:00.613Z,0.00
2022-11-07T00:07:01.491Z,0.00
2022-11-07T00:08:02.363Z,0.00
2022-11-07T00:09:03.244Z,0.00
2022-11-07T00:10:04.142Z,0.00
2022-11-07T00:11:05.033Z,0.00
2022-11-07T00:12:05.907Z,0.00
2022-11-07T00:13:06.797Z,0.00
2022-11-07T00:14:07.693Z,0.00
2022-11-07T00:15:08.576Z,0.00
2022-11-07T00:16:09.462Z,0.00
2022-11-07T00:17:10.333Z,0.00
2022-11-07T00:18:11.221Z,0.00
2022-11-07T00:19:12.097Z,0.00
2022-11-07T00:20:12.989Z,0.00
2022-11-07T00:21:13.868Z,0.00
2022-11-07T00:22:14.753Z,0.00
2022-11-07T00:23:16.076Z,0.00
2022-11-07T00:24:16.171Z,0.00
2022-11-07T00:25:17.057Z,0.00
2022-11-07T00:26:17.945Z,0.00
2022-11-07T00:27:18.876Z,0.00
2022-11-07T00:28:19.717Z,0.00
2022-11-07T00:29:20.723Z,0.00
2022-11-07T00:30:21.540Z,0.00
2022-11-07T00:31:22.423Z,0.00
2022-11-07T00:32:23.311Z,0.00
2022-11-07T00:33:24.191Z,0.00
2022-11-07T00:34:25.071Z,0.00
2022-11-07T00:35:26.003Z,0.00
2022-11-07T00:36:26.882Z,0.00
2022-11-07T00:37:27.764Z,0.00
2022-11-07T00:38:28.647Z,0.00
2022-11-07T00:39:29.533Z,0.00
2022-11-07T00:40:30.427Z,0.00
2022-11-07T00:41:31.304Z,0.00
2022-11-07T00:42:32.191Z,0.00
2022-11-07T00:43:33.061Z,0.00
2022-11-07T00:44:33.968Z,0.00
2022-11-07T00:45:34.867Z,0.00
2022-11-07T00:46:35.748Z,0.00
2022-11-07T00:47:36.626Z,0.00
2022-11-07T00:48:37.505Z,0.00
2022-11-07T00:49:38.392Z,0.00
2022-11-07T00:50:39.281Z,0.00
2022-11-07T00:51:40.173Z,0.00
2022-11-07T00:52:41.051Z,0.00
2022-11-07T00:53:41.933Z,0.00
2022-11-07T00:54:42.813Z,0.00
2022-11-07T00:55:43.701Z,0.00
2022-11-07T00:56:44.580Z,0.00
2022-11-07T00:57:45.462Z,0.00
2022-11-07T00:58:46.347Z,0.00
2022-11-07T00:59:47.245Z,0.00
2022-11-07T01:00:48.122Z,0.00
2022-11-07T01:01:49.210Z,0.00
2022-11-07T01:02:49.743Z,0.00
2022-11-07T01:03:50.119Z,0.00
2022-11-07T01:04:51.004Z,0.00
2022-11-07T01:05:51.919Z,0.00
2022-11-07T01:06:52.801Z,0.00
2022-11-07T01:07:53.683Z,0.00
2022-11-07T01:08:54.566Z,0.00
2022-11-07T01:09:55.448Z,0.00
2022-11-07T01:10:56.344Z,0.00
2022-11-07T01:11:57.228Z,0.00
2022-11-07T01:12:58.108Z,0.00
2022-11-07T01:13:58.983Z,0.00
2022-11-07T01:14:59.893Z,0.00
2022-11-07T01:16:00.757Z,0.00
2022-11-07T01:17:01.631Z,0.00
2022-11-07T01:18:02.517Z,0.00
2022-11-07T01:19:03.402Z,0.00
2022-11-07T01:20:04.277Z,0.00
2022-11-07T01:21:05.170Z,0.00
2022-11-07T01:22:06.054Z,0.00
2022-11-07T01:23:06.957Z,0.00
2022-11-07T01:24:07.845Z,0.00
2022-11-07T01:25:08.723Z,0.00
2022-11-07T01:26:09.617Z,0.00
2022-11-07T01:27:10.500Z,0.00
2022-11-07T01:28:11.378Z,0.00
2022-11-07T01:29:12.255Z,0.00
2022-11-07T01:30:13.148Z,0.00
2022-11-07T01:31:14.028Z,0.00
2022-11-07T01:32:14.904Z,0.00
2022-11-07T01:33:16.310Z,0.00
2022-11-07T01:34:16.471Z,0.00
2022-11-07T01:35:17.358Z,0.00
2022-11-07T01:36:18.251Z,0.00
2022-11-07T01:37:19.132Z,0.00
2022-11-07T01:38:20.029Z,0.00
2022-11-07T01:39:20.900Z,0.00
2022-11-07T01:40:21.785Z,0.00
2022-11-07T01:41:22.679Z,0.00
2022-11-07T01:42:23.565Z,0.00
2022-11-07T01:43:24.442Z,0.00
2022-11-07T01:44:25.327Z,0.00
2022-11-07T01:45:26.328Z,0.00
2022-11-07T01:46:27.149Z,0.00
2022-11-07T01:47:28.036Z,0.00
2022-11-07T01:48:28.923Z,0.00
2022-11-07T01:49:29.812Z,0.00
2022-11-07T01:50:30.692Z,0.00
2022-11-07T01:51:31.585Z,0.00
2022-11-07T01:52:32.470Z,0.00
2022-11-07T01:53:33.353Z,0.00
2022-11-07T01:54:34.239Z,0.00
2022-11-07T01:55:35.120Z,0.00
2022-11-07T01:56:36.003Z,0.00
2022-11-07T01:57:36.884Z,0.00
2022-11-07T01:58:37.766Z,0.00
2022-11-07T01:59:38.649Z,0.00
2022-11-07T02:00:39.548Z,0.00
2022-11-07T02:01:40.543Z,0.00
2022-11-07T02:02:41.088Z,0.00
2022-11-07T02:03:41.489Z,0.00
2022-11-07T02:04:42.381Z,0.00
2022-11-07T02:05:43.268Z,0.00
2022-11-07T02:06:44.154Z,0.00
2022-11-07T02:07:45.045Z,0.00
2022-11-07T02:08:45.919Z,0.00
2022-11-07T02:09:46.802Z,0.00
2022-11-07T02:10:47.690Z,0.00
2022-11-07T02:11:48.576Z,0.00
2022-11-07T02:12:49.467Z,0.00
2022-11-07T02:13:50.358Z,0.00
2022-11-07T02:14:51.230Z,0.00
2022-11-07T02:15:52.140Z,0.00
2022-11-07T02:16:53.013Z,0.00
2022-11-07T02:17:53.888Z,0.00
2022-11-07T02:18:54.766Z,0.00
2022-11-07T02:19:55.644Z,0.00
2022-11-07T02:20:56.518Z,0.00
2022-11-07T02:21:57.411Z,0.00
2022-11-07T02:22:58.293Z,0.00
2022-11-07T02:23:59.191Z,0.00
2022-11-07T02:25:00.049Z,0.00
2022-11-07T02:26:00.931Z,0.00
2022-11-07T02:27:01.826Z,0.00
2022-11-07T02:28:02.710Z,0.00
2022-11-07T02:29:03.596Z,0.00
2022-11-07T02:30:04.476Z,0.00
2022-11-07T02:31:05.377Z,0.00
2022-11-07T02:32:06.254Z,0.00
2022-11-07T02:33:07.138Z,0.00
2022-11-07T02:34:08.018Z,0.00
2022-11-07T02:35:08.899Z,0.00
2022-11-07T02:36:09.785Z,0.00
2022-11-07T02:37:10.678Z,0.00
2022-11-07T02:38:11.559Z,0.00
2022-11-07T02:39:12.452Z,0.00
2022-11-07T02:40:13.325Z,0.00
2022-11-07T02:41:14.208Z,0.00
2022-11-07T02:42:15.109Z,0.00
2022-11-07T02:43:16.348Z,0.00
2022-11-07T02:44:16.787Z,0.00
2022-11-07T02:45:17.662Z,0.00
2022-11-07T02:46:18.565Z,0.00
2022-11-07T02:47:19.436Z,0.00
2022-11-07T02:48:20.321Z,0.00
2022-11-07T02:49:21.202Z,0.00
2022-11-07T02:50:22.076Z,0.00
2022-11-07T02:51:22.967Z,0.00
2022-11-07T02:52:23.854Z,0.00
2022-11-07T02:53:24.742Z,0.00
2022-11-07T02:54:25.620Z,0.00
2022-11-07T02:55:26.501Z,0.00
2022-11-07T02:56:27.387Z,0.00
2022-11-07T02:57:28.282Z,0.00
2022-11-07T02:58:29.156Z,0.00
2022-11-07T02:59:30.041Z,0.00
2022-11-07T03:00:30.919Z,0.00
2022-11-07T03:01:32.173Z,0.00
2022-11-07T03:02:32.715Z,0.00
2022-11-07T03:03:33.104Z,0.00
2022-11-07T03:04:33.996Z,0.00
2022-11-07T03:05:34.874Z,0.00
2022-11-07T03:06:35.779Z,0.00
2022-11-07T03:07:36.665Z,0.00
2022-11-07T03:08:37.548Z,0.00
2022-11-07T03:09:38.427Z,0.00
2022-11-07T03:10:39.293Z,0.00
2022-11-07T03:11:40.199Z,0.00
2022-11-07T03:12:41.061Z,0.00
2022-11-07T03:13:41.945Z,0.00
2022-11-07T03:14:42.880Z,0.00
2022-11-07T03:15:43.710Z,0.00
2022-11-07T03:16:44.625Z,0.00
2022-11-07T03:17:45.491Z,0.00
2022-11-07T03:18:46.369Z,0.00
2022-11-07T03:19:47.252Z,0.00
2022-11-07T03:20:48.137Z,0.00
2022-11-07T03:21:49.032Z,0.00
2022-11-07T03:22:49.913Z,0.00
2022-11-07T03:23:50.795Z,0.00
2022-11-07T03:24:51.680Z,0.00
2022-11-07T03:25:52.572Z,0.00
2022-11-07T03:26:53.447Z,0.00
2022-11-07T03:27:54.330Z,0.00
2022-11-07T03:28:55.203Z,0.00
2022-11-07T03:29:56.089Z,0.00
2022-11-07T03:30:56.960Z,0.00
2022-11-07T03:31:57.872Z,0.00
2022-11-07T03:32:58.735Z,0.00
2022-11-07T03:33:59.623Z,0.00
2022-11-07T03:35:00.505Z,0.00
2022-11-07T03:36:01.387Z,0.00
2022-11-07T03:37:02.277Z,0.00
2022-11-07T03:38:03.164Z,0.00
2022-11-07T03:39:04.077Z,0.00
2022-11-07T03:40:04.929Z,0.00
2022-11-07T03:41:05.815Z,0.00
2022-11-07T03:42:06.723Z,0.00
2022-11-07T03:43:07.597Z,0.00
2022-11-07T03:44:08.485Z,0.00
2022-11-07T03:45:09.359Z,0.00
2022-11-07T03:46:10.262Z,0.00
2022-11-07T03:47:11.152Z,0.00
2022-11-07T03:48:12.016Z,0.00
2022-11-07T03:49:12.892Z,0.00
2022-11-07T03:50:13.799Z,0.00
2022-11-07T03:51:14.655Z,0.00
2022-11-07T03:52:15.544Z,0.00
2022-11-07T03:53:22.284Z,0.00
2022-11-07T03:54:18.197Z,0.00
2022-11-07T03:55:18.143Z,0.00
2022-11-07T03:56:19.070Z,0.00
2022-11-07T03:57:19.943Z,0.00
2022-11-07T03:58:20.850Z,0.00
2022-11-07T03:59:21.710Z,0.00
2022-11-07T04:00:22.594Z,0.00
2022-11-07T04:01:23.563Z,0.00
2022-11-07T04:02:24.621Z,0.00
2022-11-07T04:03:24.971Z,0.00
2022-11-07T04:04:25.870Z,0.00
2022-11-07T04:05:26.728Z,0.00
2022-11-07T04:06:27.616Z,0.00
2022-11-07T04:07:28.504Z,0.00
2022-11-07T04:08:29.384Z,0.00
2022-11-07T04:09:30.260Z,0.00
2022-11-07T04:10:31.160Z,0.00
2022-11-07T04:11:32.035Z,0.00
2022-11-07T04:12:32.918Z,0.00
2022-11-07T04:13:33.801Z,0.00
2022-11-07T04:14:34.684Z,0.00
2022-11-07T04:15:35.569Z,0.00
2022-11-07T04:16:36.457Z,0.00
2022-11-07T04:17:37.481Z,0.00
2022-11-07T04:18:38.288Z,0.00
2022-11-07T04:19:39.171Z,0.00
2022-11-07T04:20:40.053Z,0.00
2022-11-07T04:21:40.937Z,0.00
2022-11-07T04:22:41.825Z,0.00
2022-11-07T04:23:42.706Z,0.00
2022-11-07T04:24:45.986Z,0.00
2022-11-07T04:25:44.127Z,0.00
2022-11-07T04:26:45.014Z,0.00
2022-11-07T04:27:45.901Z,0.00
2022-11-07T04:28:46.780Z,0.00
2022-11-07T04:29:47.663Z,0.00
2022-11-07T04:30:48.565Z,0.00
2022-11-07T04:31:49.446Z,0.00
2022-11-07T04:32:50.347Z,0.00
2022-11-07T04:33:51.199Z,0.00
2022-11-07T04:34:52.085Z,0.00
2022-11-07T04:35:52.969Z,0.00
2022-11-07T04:36:53.881Z,0.00
2022-11-07T04:37:54.752Z,0.00
2022-11-07T04:38:55.632Z,0.00
2022-11-07T04:39:56.509Z,0.00
2022-11-07T04:40:57.434Z,0.00
2022-11-07T04:41:58.278Z,0.00
2022-11-07T04:42:59.196Z,0.00
2022-11-07T04:44:00.041Z,0.00
2022-11-07T04:45:00.921Z,0.00
2022-11-07T04:46:01.795Z,0.00
2022-11-07T04:47:02.686Z,0.00
2022-11-07T04:48:03.648Z,0.00
2022-11-07T04:49:04.465Z,0.00
2022-11-07T04:50:05.335Z,0.00
2022-11-07T04:51:06.219Z,0.00
2022-11-07T04:52:07.115Z,0.00
2022-11-07T04:53:08.003Z,0.00
2022-11-07T04:54:08.874Z,0.00
2022-11-07T04:55:09.756Z,0.00
2022-11-07T04:56:10.654Z,0.00
2022-11-07T04:57:11.535Z,0.00
2022-11-07T04:58:12.406Z,0.00
2022-11-07T04:59:13.291Z,0.00
2022-11-07T05:00:14.176Z,0.00
2022-11-07T05:01:15.058Z,0.00
2022-11-07T05:02:16.070Z,0.00
2022-11-07T05:03:17.057Z,0.00
2022-11-07T05:04:17.147Z,0.00
2022-11-07T05:05:18.029Z,0.00
2022-11-07T05:06:18.900Z,0.00
2022-11-07T05:07:19.792Z,0.00
2022-11-07T05:08:20.685Z,0.00
2022-11-07T05:09:21.549Z,0.00
2022-11-07T05:10:22.432Z,0.00
2022-11-07T05:11:23.313Z,0.00
2022-11-07T05:12:24.208Z,0.00
2022-11-07T05:13:25.095Z,0.00
2022-11-07T05:14:25.998Z,0.00
2022-11-07T05:15:26.856Z,0.00
2022-11-07T05:16:27.742Z,0.00
2022-11-07T05:17:28.646Z,0.00
2022-11-07T05:18:29.541Z,0.00
2022-11-07T05:19:30.405Z,0.00
2022-11-07T05:20:31.303Z,0.00
2022-11-07T05:21:32.174Z,0.00
2022-11-07T05:22:33.057Z,0.00
2022-11-07T05:23:33.941Z,0.00
2022-11-07T05:24:34.811Z,0.00
2022-11-07T05:25:35.694Z,0.00
2022-11-07T05:26:36.586Z,0.00
2022-11-07T05:27:37.472Z,0.00
2022-11-07T05:28:39.831Z,0.00
2022-11-07T05:29:38.861Z,0.00
2022-11-07T05:30:39.748Z,0.00
2022-11-07T05:31:40.630Z,0.00
2022-11-07T05:32:41.541Z,0.00
2022-11-07T05:33:42.435Z,0.00
2022-11-07T05:34:43.291Z,0.00
2022-11-07T05:35:44.173Z,0.00
2022-11-07T05:36:45.060Z,0.00
2022-11-07T05:37:45.956Z,0.00
2022-11-07T05:38:46.855Z,0.00
2022-11-07T05:39:51.072Z,0.00
2022-11-07T05:40:49.495Z,0.00
2022-11-07T05:41:49.376Z,0.00
2022-11-07T05:42:50.274Z,0.00
2022-11-07T05:43:51.159Z,0.00
2022-11-07T05:44:52.057Z,0.00
2022-11-07T05:45:52.874Z,0.00
2022-11-07T05:46:53.752Z,0.00
2022-11-07T05:47:54.618Z,0.00
2022-11-07T05:49:00.673Z,0.00
2022-11-07T05:49:57.227Z,0.00
2022-11-07T05:50:57.073Z,0.00
2022-11-07T05:51:57.945Z,0.00
2022-11-07T05:52:58.922Z,0.00
2022-11-07T05:53:59.704Z,0.00
2022-11-07T05:55:00.544Z,0.00
2022-11-07T05:56:01.364Z,0.00
2022-11-07T05:57:02.209Z,0.00
2022-11-07T05:58:06.973Z,0.00
2022-11-07T05:59:03.943Z,0.00
2022-11-07T06:00:04.772Z,0.00
2022-11-07T06:01:05.593Z,0.00
2022-11-07T06:02:06.516Z,0.00
2022-11-07T06:03:07.431Z,0.00
2022-11-07T06:04:08.229Z,0.00
2022-11-07T06:05:09.031Z,0.00
2022-11-07T06:06:09.863Z,0.00
2022-11-07T06:07:10.680Z,0.00
2022-11-07T06:08:11.517Z,0.00
2022-11-07T06:09:12.349Z,0.00
2022-11-07T06:10:13.177Z,0.00
2022-11-07T06:11:14.014Z,0.00
2022-11-07T06:12:14.833Z,0.00
2022-11-07T06:13:16.003Z,0.00
2022-11-07T06:14:16.502Z,0.00
2022-11-07T06:15:17.341Z,0.00
2022-11-07T06:16:18.162Z,0.00
2022-11-07T06:17:18.990Z,0.00
2022-11-07T06:18:19.831Z,0.00
2022-11-07T06:19:20.671Z,0.00
2022-11-07T06:20:21.481Z,0.00
2022-11-07T06:21:22.323Z,0.00
2022-11-07T06:22:23.141Z,0.00
2022-11-07T06:23:23.980Z,0.00
2022-11-07T06:24:24.808Z,0.00
2022-11-07T06:25:25.648Z,0.00
2022-11-07T06:26:26.475Z,0.00
2022-11-07T06:27:27.316Z,0.00
2022-11-07T06:28:28.122Z,0.00
2022-11-07T06:29:28.952Z,0.00
2022-11-07T06:30:29.824Z,0.00
2022-11-07T06:31:30.620Z,0.00
2022-11-07T06:32:31.451Z,0.00
2022-11-07T06:33:32.290Z,0.00
2022-11-07T06:34:33.138Z,0.00
2022-11-07T06:35:33.984Z,0.00
2022-11-07T06:36:34.786Z,0.00
2022-11-07T06:37:35.615Z,0.00
2022-11-07T06:38:36.453Z,0.00
2022-11-07T06:39:37.280Z,0.00
2022-11-07T06:40:38.112Z,0.00
2022-11-07T06:41:38.992Z,0.00
2022-11-07T06:42:39.778Z,0.00
2022-11-07T06:43:40.616Z,0.00
2022-11-07T06:44:41.434Z,5.62
2022-11-07T06:45:42.263Z,5.62
2022-11-07T06:46:43.095Z,5.62
2022-11-07T06:47:43.978Z,5.62
2022-11-07T06:48:44.770Z,5.62
2022-11-07T06:49:45.615Z,5.62
2022-11-07T06:50:46.425Z,5.62
2022-11-07T06:51:48.122Z,5.62
2022-11-07T06:52:47.976Z,5.62
2022-11-07T06:53:48.868Z,5.62
2022-11-07T06:54:49.655Z,5.62
2022-11-07T06:55:50.483Z,5.62
2022-11-07T06:56:51.313Z,5.62
2022-11-07T06:57:52.146Z,5.62
2022-11-07T06:58:52.982Z,5.62
2022-11-07T06:59:53.835Z,5.62
2022-11-07T07:00:54.658Z,5.62
2022-11-07T07:01:55.537Z,11.25
2022-11-07T07:02:59.054Z,11.25
2022-11-07T07:03:57.041Z,11.25
2022-11-07T07:04:57.921Z,11.25
2022-11-07T07:05:58.725Z,11.25
2022-11-07T07:06:59.539Z,11.25
2022-11-07T07:08:00.366Z,11.25
2022-11-07T07:09:01.199Z,11.25
2022-11-07T07:10:02.027Z,11.25
2022-11-07T07:11:02.852Z,11.25
2022-11-07T07:12:03.678Z,11.25
2022-11-07T07:13:04.512Z,11.25
2022-11-07T07:14:10.246Z,11.25
2022-11-07T07:15:07.297Z,11.25
2022-11-07T07:16:06.621Z,11.25
2022-11-07T07:17:07.440Z,11.25
2022-11-07T07:18:08.370Z,11.25
2022-11-07T07:19:09.133Z,11.25
2022-11-07T07:20:10.079Z,11.25
2022-11-07T07:21:10.839Z,11.25
2022-11-07T07:22:11.665Z,11.25
2022-11-07T07:23:12.494Z,11.25
2022-11-07T07:24:13.327Z,11.25
2022-11-07T07:25:14.147Z,11.25
2022-11-07T07:26:14.984Z,11.25
2022-11-07T07:27:15.804Z,11.25
2022-11-07T07:28:16.651Z,11.25
2022-11-07T07:29:17.475Z,11.25
2022-11-07T07:30:18.306Z,11.25
2022-11-07T07:31:19.149Z,11.25
2022-11-07T07:32:19.964Z,11.25
2022-11-07T07:33:20.817Z,11.25
2022-11-07T07:34:21.644Z,16.88
2022-11-07T07:35:22.590Z,16.88
2022-11-07T07:36:23.423Z,16.88
2022-11-07T07:37:24.245Z,16.88
2022-11-07T07:38:25.085Z,16.88
2022-11-07T07:39:25.910Z,16.88
2022-11-07T07:40:26.734Z,16.88
2022-11-07T07:41:27.562Z,16.88
2022-11-07T07:42:28.386Z,16.88
2022-11-07T07:43:29.227Z,16.88
2022-11-07T07:44:30.050Z,16.88
2022-11-07T07:45:30.884Z,16.88
2022-11-07T07:46:31.725Z,16.88
2022-11-07T07:47:32.543Z,16.88
2022-11-07T07:48:33.382Z,16.88
2022-11-07T07:49:34.217Z,16.88
2022-11-07T07:50:35.156Z,16.88
2022-11-07T07:51:35.917Z,16.88
2022-11-07T07:52:36.737Z,16.88
2022-11-07T07:53:37.574Z,16.88
2022-11-07T07:54:38.397Z,16.88
2022-11-07T07:55:39.233Z,22.50
2022-11-07T07:56:40.055Z,22.50
2022-11-07T07:57:40.891Z,22.50
2022-11-07T07:58:41.730Z,22.50
2022-11-07T07:59:42.560Z,22.50
2022-11-07T08:00:43.457Z,22.50
2022-11-07T08:01:44.471Z,22.50
2022-11-07T08:02:44.806Z,22.50
2022-11-07T08:04:00.882Z,22.50
2022-11-07T08:04:47.348Z,28.12
2022-11-07T08:05:47.287Z,28.12
2022-11-07T08:06:48.045Z,28.12
2022-11-07T08:07:48.880Z,28.12
2022-11-07T08:08:49.710Z,28.12
2022-11-07T08:09:50.540Z,28.12
2022-11-07T08:10:51.375Z,28.12
2022-11-07T08:11:52.200Z,28.12
2022-11-07T08:12:53.032Z,33.75
2022-11-07T08:13:58.387Z,33.75
2022-11-07T08:14:55.588Z,33.75
2022-11-07T08:15:55.419Z,39.38
2022-11-07T08:16:56.249Z,33.75
2022-11-07T08:17:57.067Z,45.00
2022-11-07T08:18:57.909Z,56.25
2022-11-07T08:19:58.733Z,135.00
2022-11-07T08:20:59.682Z,286.88
2022-11-07T08:22:00.440Z,382.50
2022-11-07T08:23:01.265Z,360.00
2022-11-07T08:24:02.111Z,511.88
2022-11-07T08:25:02.935Z,545.62
2022-11-07T08:26:03.756Z,326.25
2022-11-07T08:27:04.587Z,67.50
2022-11-07T08:28:05.423Z,39.38
2022-11-07T08:29:06.247Z,39.38
2022-11-07T08:30:07.066Z,39.38
2022-11-07T08:31:07.897Z,33.75
2022-11-07T08:32:08.730Z,33.75
2022-11-07T08:33:09.641Z,33.75
2022-11-07T08:34:10.526Z,33.75
2022-11-07T08:35:11.288Z,33.75
2022-11-07T08:36:12.137Z,33.75
2022-11-07T08:37:12.940Z,33.75
2022-11-07T08:38:13.766Z,33.75
2022-11-07T08:39:14.625Z,33.75
2022-11-07T08:40:15.453Z,33.75
2022-11-07T08:41:21.773Z,33.75
2022-11-07T08:42:17.996Z,33.75
2022-11-07T08:43:18.156Z,28.12
2022-11-07T08:44:18.708Z,28.12
2022-11-07T08:45:19.527Z,28.12
2022-11-07T08:46:20.369Z,28.12
2022-11-07T08:47:21.187Z,28.12
2022-11-07T08:48:22.016Z,28.12
2022-11-07T08:49:22.938Z,28.12
2022-11-07T08:50:23.780Z,28.12
2022-11-07T08:51:24.588Z,28.12
2022-11-07T08:52:25.410Z,28.12
2022-11-07T08:53:26.231Z,28.12
2022-11-07T08:54:27.062Z,28.12
2022-11-07T08:55:27.904Z,28.12
2022-11-07T08:56:28.721Z,28.12
2022-11-07T08:57:29.551Z,28.12
2022-11-07T08:58:30.577Z,28.12
2022-11-07T08:59:31.366Z,22.50
2022-11-07T09:00:32.211Z,28.12
2022-11-07T09:01:33.215Z,22.50
2022-11-07T09:03:57.727Z,22.50
2022-11-07T09:04:36.150Z,22.50
2022-11-07T09:05:35.941Z,22.50
2022-11-07T09:06:36.780Z,22.50
2022-11-07T09:07:37.595Z,22.50
2022-11-07T09:08:38.421Z,22.50
2022-11-07T09:09:39.267Z,22.50
2022-11-07T09:10:40.095Z,22.50
2022-11-07T09:11:40.921Z,22.50
2022-11-07T09:12:41.757Z,22.50
2022-11-07T09:13:42.584Z,22.50
2022-11-07T09:14:43.426Z,22.50
2022-11-07T09:15:50.386Z,22.50
2022-11-07T09:16:45.969Z,22.50
2022-11-07T09:17:45.807Z,22.50
2022-11-07T09:18:46.636Z,22.50
2022-11-07T09:19:47.474Z,16.88
2022-11-07T09:20:48.303Z,22.50
2022-11-07T09:21:49.169Z,22.50
2022-11-07T09:22:49.968Z,22.50
2022-11-07T09:23:50.837Z,22.50
2022-11-07T09:24:51.668Z,28.12
2022-11-07T09:25:52.489Z,28.12
2022-11-07T09:26:53.326Z,22.50
2022-11-07T09:27:54.153Z,28.12
2022-11-07T09:29:00.031Z,28.12
2022-11-07T09:29:56.707Z,28.12
2022-11-07T09:30:56.534Z,28.12
2022-11-07T09:31:57.357Z,28.12
2022-11-07T09:32:58.197Z,28.12
2022-11-07T09:33:59.014Z,22.50
2022-11-07T09:35:04.704Z,22.50
2022-11-07T09:36:01.570Z,22.50
2022-11-07T09:37:01.430Z,22.50
2022-11-07T09:38:02.241Z,22.50
2022-11-07T09:39:03.079Z,22.50
2022-11-07T09:40:03.899Z,22.50
2022-11-07T09:41:04.732Z,22.50
2022-11-07T09:42:05.547Z,22.50
2022-11-07T09:43:06.376Z,22.50
2022-11-07T09:44:07.203Z,22.50
2022-11-07T09:45:08.047Z,22.50
2022-11-07T09:46:08.872Z,22.50
2022-11-07T09:47:09.769Z,22.50
2022-11-07T09:48:10.528Z,22.50
2022-11-07T09:49:11.356Z,22.50
2022-11-07T09:50:12.203Z,22.50
2022-11-07T09:51:13.022Z,28.12
2022-11-07T09:52:13.873Z,28.12
2022-11-07T09:53:15.014Z,22.50
2022-11-07T09:54:15.432Z,22.50
2022-11-07T09:55:16.267Z,22.50
2022-11-07T09:56:17.099Z,22.50
2022-11-07T09:57:17.923Z,22.50
2022-11-07T09:58:18.750Z,22.50
2022-11-07T09:59:19.578Z,22.50
2022-11-07T10:00:20.425Z,22.50
2022-11-07T10:01:21.320Z,16.88
2022-11-07T10:02:22.214Z,22.50
2022-11-07T10:03:22.997Z,22.50
2022-11-07T10:04:25.710Z,22.50
2022-11-07T10:05:24.334Z,22.50
2022-11-07T10:06:25.152Z,22.50
2022-11-07T10:07:26.000Z,22.50
2022-11-07T10:08:26.803Z,22.50
2022-11-07T10:09:27.635Z,22.50
2022-11-07T10:10:28.474Z,22.50
2022-11-07T10:11:29.308Z,22.50
2022-11-07T10:12:30.136Z,22.50
2022-11-07T10:13:30.959Z,22.50
2022-11-07T10:14:31.829Z,22.50
2022-11-07T10:15:32.667Z,22.50
2022-11-07T10:16:33.498Z,22.50
2022-11-07T10:17:34.328Z,22.50
2022-11-07T10:18:35.163Z,22.50
2022-11-07T10:19:35.996Z,22.50
2022-11-07T10:20:36.836Z,22.50
2022-11-07T10:21:38.907Z,22.50
2022-11-07T10:22:38.655Z,28.12
2022-11-07T10:23:39.465Z,28.12
2022-11-07T10:24:40.294Z,28.12
2022-11-07T10:25:41.197Z,28.12
2022-11-07T10:26:42.007Z,28.12
2022-11-07T10:27:42.840Z,28.12
2022-11-07T10:28:43.654Z,28.12
2022-11-07T10:29:45.097Z,28.12
2022-11-07T10:30:45.476Z,28.12
2022-11-07T10:31:46.306Z,28.12
2022-11-07T10:32:47.133Z,28.12
2022-11-07T10:33:47.963Z,28.12
2022-11-07T10:34:53.998Z,28.12
2022-11-07T10:35:50.517Z,22.50
2022-11-07T10:36:50.334Z,22.50
2022-11-07T10:37:51.185Z,22.50
2022-11-07T10:38:51.993Z,22.50
2022-11-07T10:39:52.830Z,22.50
2022-11-07T10:40:53.666Z,22.50
2022-11-07T10:41:54.499Z,22.50
2022-11-07T10:42:55.321Z,22.50
2022-11-07T10:43:56.163Z,22.50
2022-11-07T10:44:56.981Z,28.12
2022-11-07T10:45:57.817Z,28.12
2022-11-07T10:46:58.802Z,28.12
2022-11-07T10:47:59.662Z,28.12
2022-11-07T10:49:00.450Z,28.12
2022-11-07T10:50:01.359Z,28.12
2022-11-07T10:51:02.185Z,28.12
2022-11-07T10:52:03.000Z,28.12
2022-11-07T10:53:03.862Z,28.12
2022-11-07T10:54:04.650Z,28.12
2022-11-07T10:55:05.470Z,28.12
2022-11-07T10:56:06.311Z,28.12
2022-11-07T10:57:07.137Z,28.12
2022-11-07T10:58:07.964Z,28.12
2022-11-07T10:59:08.793Z,28.12
2022-11-07T11:00:09.639Z,28.12
2022-11-07T11:01:10.511Z,28.12
2022-11-07T11:02:11.367Z,28.12
2022-11-07T11:03:12.162Z,28.12
2022-11-07T11:04:13.145Z,28.12
2022-11-07T11:05:13.969Z,28.12
2022-11-07T11:06:14.761Z,28.12
2022-11-07T11:07:15.609Z,28.12
2022-11-07T11:08:16.837Z,28.12
2022-11-07T11:09:17.362Z,28.12
2022-11-07T11:10:18.236Z,28.12
2022-11-07T11:11:19.039Z,28.12
2022-11-07T11:12:19.868Z,28.12
2022-11-07T11:13:20.746Z,28.12
2022-11-07T11:14:21.538Z,22.50
2022-11-07T11:15:22.372Z,28.12
2022-11-07T11:16:23.202Z,28.12
2022-11-07T11:17:24.084Z,28.12
2022-11-07T11:18:24.881Z,28.12
2022-11-07T11:19:25.704Z,28.12
2022-11-07T11:20:26.580Z,28.12
2022-11-07T11:21:27.391Z,28.12
2022-11-07T11:22:28.220Z,28.12
2022-11-07T11:23:29.071Z,28.12
2022-11-07T11:24:29.879Z,22.50
2022-11-07T11:25:30.731Z,22.50
2022-11-07T11:26:31.572Z,22.50
2022-11-07T11:27:32.399Z,22.50
2022-11-07T11:28:33.230Z,22.50
2022-11-07T11:29:39.155Z,22.50
2022-11-07T11:30:35.773Z,22.50
2022-11-07T11:31:35.591Z,22.50
2022-11-07T11:32:36.421Z,22.50
2022-11-07T11:33:37.241Z,22.50
2022-11-07T11:34:38.069Z,28.12
2022-11-07T11:35:41.951Z,28.12
2022-11-07T11:36:39.554Z,28.12
2022-11-07T11:37:40.387Z,28.12
2022-11-07T11:38:41.232Z,28.12
2022-11-07T11:39:42.034Z,28.12
2022-11-07T11:40:42.874Z,28.12
2022-11-07T11:41:43.693Z,28.12
2022-11-07T11:42:44.523Z,28.12
2022-11-07T11:43:45.350Z,28.12
2022-11-07T11:44:46.174Z,28.12
2022-11-07T11:45:47.014Z,28.12
2022-11-07T11:46:47.867Z,28.12
2022-11-07T11:47:48.676Z,28.12
2022-11-07T11:48:49.503Z,28.12
2022-11-07T11:49:50.323Z,28.12
2022-11-07T11:50:51.160Z,33.75
2022-11-07T11:51:51.979Z,33.75
2022-11-07T11:52:52.820Z,28.12
2022-11-07T11:53:53.660Z,28.12
2022-11-07T11:54:54.461Z,28.12
2022-11-07T11:55:55.293Z,28.12
2022-11-07T11:56:56.117Z,28.12
2022-11-07T11:57:56.940Z,28.12
2022-11-07T11:58:57.766Z,28.12
2022-11-07T11:59:58.589Z,28.12
2022-11-07T12:00:59.421Z,28.12
2022-11-07T12:02:00.316Z,28.12
2022-11-07T12:03:01.102Z,22.50
2022-11-07T12:04:03.994Z,28.12
2022-11-07T12:05:03.649Z,28.12
2022-11-07T12:06:03.484Z,28.12
2022-11-07T12:07:04.315Z,28.12
2022-11-07T12:08:05.150Z,22.50
2022-11-07T12:09:05.993Z,28.12
2022-11-07T12:10:06.803Z,28.12
2022-11-07T12:11:07.631Z,28.12
2022-11-07T12:12:08.461Z,28.12
2022-11-07T12:13:09.290Z,22.50
2022-11-07T12:14:10.111Z,22.50
2022-11-07T12:15:10.961Z,22.50
2022-11-07T12:16:11.805Z,28.12
2022-11-07T12:17:12.645Z,28.12
2022-11-07T12:18:13.466Z,28.12
2022-11-07T12:19:14.304Z,28.12
2022-11-07T12:20:15.135Z,22.50
2022-11-07T12:21:15.962Z,28.12
2022-11-07T12:22:16.796Z,22.50
2022-11-07T12:23:17.993Z,22.50
2022-11-07T12:24:18.494Z,22.50
2022-11-07T12:25:19.313Z,28.12
2022-11-07T12:26:20.144Z,28.12
2022-11-07T12:27:26.600Z,22.50
2022-11-07T12:28:22.690Z,28.12
2022-11-07T12:29:22.518Z,28.12
2022-11-07T12:30:23.348Z,28.12
2022-11-07T12:31:24.176Z,28.12
2022-11-07T12:32:24.999Z,28.12
2022-11-07T12:33:25.826Z,28.12
2022-11-07T12:34:26.645Z,28.12
2022-11-07T12:35:27.485Z,22.50
2022-11-07T12:36:28.305Z,22.50
2022-11-07T12:37:29.132Z,22.50
2022-11-07T12:38:29.951Z,22.50
2022-11-07T12:39:30.805Z,22.50
2022-11-07T12:40:31.619Z,22.50
2022-11-07T12:41:32.448Z,28.12
2022-11-07T12:42:33.268Z,22.50
2022-11-07T12:43:34.099Z,22.50
2022-11-07T12:44:34.915Z,22.50
2022-11-07T12:45:35.758Z,22.50
2022-11-07T12:46:36.588Z,22.50
2022-11-07T12:47:37.418Z,16.88
2022-11-07T12:48:38.244Z,16.88
2022-11-07T12:49:39.074Z,22.50
2022-11-07T12:50:39.914Z,22.50
2022-11-07T12:51:40.745Z,16.88
2022-11-07T12:52:41.561Z,22.50
2022-11-07T12:53:42.391Z,22.50
2022-11-07T12:54:43.242Z,22.50
2022-11-07T12:55:44.059Z,11.25
2022-11-07T12:56:44.878Z,16.88
2022-11-07T12:57:45.711Z,16.88
2022-11-07T12:58:46.528Z,16.88
2022-11-07T12:59:47.358Z,16.88
2022-11-07T13:00:48.187Z,16.88
2022-11-07T13:01:49.133Z,16.88
2022-11-07T13:02:50.035Z,16.88
2022-11-07T13:03:50.838Z,22.50
2022-11-07T13:04:51.669Z,16.88
2022-11-07T13:05:52.506Z,22.50
2022-11-07T13:06:53.339Z,22.50
2022-11-07T13:07:54.164Z,22.50
2022-11-07T13:08:54.991Z,22.50
2022-11-07T13:09:55.836Z,22.50
2022-11-07T13:10:56.652Z,22.50
2022-11-07T13:11:57.481Z,22.50
2022-11-07T13:12:58.301Z,16.88
2022-11-07T13:13:59.127Z,22.50
2022-11-07T13:14:59.956Z,22.50
2022-11-07T13:16:14.997Z,22.50
2022-11-07T13:17:02.512Z,22.50
2022-11-07T13:18:02.342Z,22.50